createdAt,value
2019-02-07T00:01:43.374Z,1.15
2019-02-07T00:04:13.117Z,1.15
2019-02-07T00:06:42.719Z,1.19
2019-02-07T00:26:35.331Z,1.07
2019-02-07T00:29:05.233Z,1.09
2019-02-07T00:31:34.768Z,1.06
2019-02-07T00:34:04.496Z,1.12
2019-02-07T00:36:34.116Z,1.03
2019-02-07T00:39:04.143Z,1.14
2019-02-07T00:41:33.781Z,1.03
2019-02-07T00:44:03.827Z,0.95
2019-02-07T00:46:33.399Z,0.93
2019-02-07T00:49:03.071Z,0.97
2019-02-07T00:51:32.823Z,1.00
2019-02-07T00:54:02.444Z,0.93
2019-02-07T00:56:32.256Z,0.95
2019-02-07T00:59:01.952Z,1.00
2019-02-07T01:01:31.540Z,0.95
2019-02-07T01:04:01.287Z,0.90
2019-02-07T01:06:30.854Z,0.97
2019-02-07T01:09:00.409Z,1.08
2019-02-07T01:11:30.243Z,0.88
2019-02-07T01:13:59.722Z,0.97
2019-02-07T01:16:29.411Z,1.07
2019-02-07T01:18:59.167Z,0.92
2019-02-07T01:21:28.857Z,0.90
2019-02-07T01:23:58.382Z,0.74
2019-02-07T01:26:28.161Z,0.73
2019-02-07T01:28:57.897Z,0.67
2019-02-07T01:31:27.493Z,0.72
2019-02-07T01:33:56.997Z,0.73
2019-02-07T01:36:26.796Z,0.61
2019-02-07T01:38:56.606Z,0.68
2019-02-07T01:41:26.235Z,0.54
2019-02-07T01:43:55.818Z,0.53
2019-02-07T01:46:25.397Z,0.51
2019-02-07T01:48:55.250Z,0.54
2019-02-07T01:51:25.161Z,0.63
2019-02-07T01:53:54.695Z,0.67
2019-02-07T01:56:24.501Z,0.64
2019-02-07T01:58:54.159Z,0.68
2019-02-07T02:01:24.012Z,0.64
2019-02-07T02:03:53.635Z,0.52
2019-02-07T02:06:23.291Z,0.59
2019-02-07T02:08:52.888Z,0.49
2019-02-07T02:28:44.869Z,0.40
2019-02-07T02:31:14.666Z,0.35
2019-02-07T02:33:44.177Z,0.42
2019-02-07T02:36:13.778Z,0.35
2019-02-07T02:38:43.427Z,0.24
2019-02-07T02:41:13.103Z,0.47
2019-02-07T02:43:42.731Z,0.44
2019-02-07T02:46:12.459Z,0.41
2019-02-07T02:48:42.160Z,0.37
2019-02-07T02:51:11.684Z,0.47
2019-02-07T02:53:41.454Z,0.36
2019-02-07T02:56:11.265Z,0.39
2019-02-07T02:58:40.937Z,0.28
2019-02-07T03:01:41.033Z,0.28
2019-02-07T03:04:15.932Z,0.18
2019-02-07T03:06:50.788Z,0.17
2019-02-07T03:10:23.739Z,0.28
2019-02-07T03:13:12.568Z,0.19
2019-02-07T03:15:50.022Z,0.06
2019-02-07T03:18:22.861Z,0.14
2019-02-07T03:20:57.856Z,0.15
2019-02-07T03:23:32.724Z,0.22
2019-02-07T03:26:07.480Z,0.19
2019-02-07T03:29:42.092Z,0.17
2019-02-07T03:32:17.661Z,0.13
2019-02-07T03:34:52.390Z,0.20
2019-02-07T03:37:32.969Z,0.19
2019-02-07T03:40:07.721Z,0.28
2019-02-07T03:42:44.373Z,0.29
2019-02-07T03:45:22.204Z,0.24
2019-02-07T03:47:57.012Z,0.22
2019-02-07T03:50:34.810Z,0.26
2019-02-07T03:54:13.538Z,0.26
2019-02-07T03:56:52.062Z,0.27
2019-02-07T04:01:30.847Z,0.31
2019-02-07T04:04:04.572Z,0.30
2019-02-07T04:07:37.305Z,0.35
2019-02-07T04:10:12.258Z,0.35
2019-02-07T04:12:47.102Z,0.29
2019-02-07T04:15:21.731Z,0.39
2019-02-07T04:18:05.491Z,0.39
2019-02-07T04:20:48.264Z,0.41
2019-02-07T04:23:22.937Z,0.35
2019-02-07T04:26:01.356Z,0.33
2019-02-07T04:28:34.991Z,0.30
2019-02-07T04:31:12.755Z,0.42
2019-02-07T04:33:48.608Z,0.50
2019-02-07T04:36:28.082Z,0.36
2019-02-07T04:39:09.634Z,0.31
2019-02-07T04:42:19.597Z,0.29
2019-02-07T04:44:54.156Z,0.22
2019-02-07T04:47:29.855Z,0.31
2019-02-07T04:50:04.579Z,0.33
2019-02-07T04:52:45.452Z,0.49
2019-02-07T04:55:32.235Z,0.42
2019-02-07T04:58:11.888Z,0.44
2019-02-07T05:00:45.685Z,0.45
2019-02-07T05:04:20.654Z,0.43
2019-02-07T05:06:57.631Z,0.45
2019-02-07T05:09:32.429Z,0.35
2019-02-07T05:12:07.043Z,0.36
2019-02-07T05:35:11.127Z,0.09
2019-02-07T05:38:47.032Z,0.14
2019-02-07T05:41:25.017Z,0.27
2019-02-07T05:44:30.416Z,0.28
2019-02-07T05:49:10.387Z,0.25
2019-02-07T05:51:49.208Z,0.25
2019-02-07T05:54:26.748Z,0.43
2019-02-07T05:57:00.643Z,0.55
2019-02-07T06:17:02.802Z,0.78
2019-02-07T06:19:30.289Z,0.74
2019-02-07T06:22:18.979Z,0.71
2019-02-07T06:25:00.424Z,0.81
2019-02-07T06:28:37.731Z,0.87
2019-02-07T06:31:13.515Z,0.87
2019-02-07T06:34:07.717Z,0.91
2019-02-07T06:36:45.167Z,0.90
2019-02-07T06:39:20.155Z,0.89
2019-02-07T06:41:55.042Z,1.06
2019-02-07T06:44:29.878Z,1.13
2019-02-07T06:47:13.283Z,1.17
2019-02-07T06:49:44.422Z,1.18
2019-02-07T06:53:17.284Z,1.04
2019-02-07T06:55:51.872Z,1.18
2019-02-07T06:59:24.341Z,1.20
2019-02-07T07:04:02.498Z,1.25
2019-02-07T07:06:54.403Z,1.30
2019-02-07T07:09:28.086Z,1.28
2019-02-07T07:12:05.863Z,1.45
2019-02-07T07:14:40.299Z,1.24
2019-02-07T07:17:25.437Z,1.36
2019-02-07T07:19:53.833Z,1.38
2019-02-07T07:22:28.607Z,1.47
2019-02-07T07:27:09.780Z,1.49
2019-02-07T07:29:44.597Z,1.65
2019-02-07T07:32:18.273Z,1.58
2019-02-07T07:34:52.994Z,1.47
2019-02-07T07:37:27.806Z,1.55
2019-02-07T07:40:07.431Z,1.68
2019-02-07T07:42:42.275Z,1.76
2019-02-07T07:45:21.364Z,1.71
2019-02-07T07:48:58.114Z,1.77
2019-02-07T07:51:37.831Z,1.93
2019-02-07T07:54:46.901Z,1.70
2019-02-07T07:57:21.717Z,1.60
2019-02-07T08:00:01.190Z,1.62
2019-02-07T08:02:37.232Z,1.62
2019-02-07T08:05:13.280Z,1.66
2019-02-07T08:09:54.647Z,1.83
2019-02-07T08:12:29.484Z,1.96
2019-02-07T08:15:04.084Z,1.94
2019-02-07T08:17:47.704Z,2.05
2019-02-07T08:37:45.592Z,2.20
2019-02-07T08:40:25.274Z,2.24
2019-02-07T08:42:59.901Z,2.35
2019-02-07T08:45:35.652Z,2.54
2019-02-07T08:48:17.514Z,2.65
2019-02-07T08:50:58.452Z,2.79
2019-02-07T08:53:39.027Z,2.95
2019-02-07T08:56:15.763Z,3.01
2019-02-07T08:58:50.624Z,3.06
2019-02-07T09:01:24.387Z,2.75
2019-02-07T09:06:04.161Z,2.66
2019-02-07T09:08:43.702Z,3.07
2019-02-07T09:11:18.736Z,3.54
2019-02-07T09:13:53.786Z,3.93
2019-02-07T09:17:28.664Z,4.08
2019-02-07T09:22:08.557Z,4.47
2019-02-07T09:24:47.541Z,5.06
2019-02-07T09:28:27.277Z,5.24
2019-02-07T09:31:11.104Z,5.08
2019-02-07T09:33:48.802Z,5.01
2019-02-07T09:36:22.679Z,4.99
2019-02-07T09:39:59.281Z,4.90
2019-02-07T09:42:37.159Z,4.99
2019-02-07T09:45:27.967Z,4.91
2019-02-07T09:48:03.625Z,4.16
2019-02-07T09:51:40.832Z,3.91
2019-02-07T09:54:22.503Z,4.22
2019-02-07T09:59:03.583Z,4.35
2019-02-07T10:02:36.900Z,4.21
2019-02-07T10:05:12.775Z,3.73
2019-02-07T10:07:54.727Z,3.36
2019-02-07T10:10:31.508Z,3.41
2019-02-07T10:13:06.272Z,3.81
2019-02-07T10:15:55.956Z,4.42
2019-02-07T10:18:33.277Z,4.39
2019-02-07T10:21:06.267Z,4.56
2019-02-07T10:23:41.062Z,4.76
2019-02-07T10:27:13.524Z,4.71
2019-02-07T10:29:48.287Z,4.32
2019-02-07T10:32:24.120Z,4.16
2019-02-07T10:35:11.034Z,4.87
2019-02-07T10:37:45.948Z,5.07
2019-02-07T10:41:19.860Z,4.41
2019-02-07T10:43:54.367Z,3.98
2019-02-07T10:46:28.065Z,4.33
2019-02-07T10:51:09.440Z,4.91
2019-02-07T10:53:45.749Z,4.69
2019-02-07T10:56:51.923Z,4.40
2019-02-07T11:00:24.429Z,4.68
2019-02-07T11:02:59.639Z,4.60
2019-02-07T11:07:41.324Z,4.42
2019-02-07T11:10:20.095Z,4.15
2019-02-07T11:13:10.775Z,4.15
2019-02-07T11:15:46.228Z,4.09
2019-02-07T11:18:38.890Z,4.53
2019-02-07T11:21:13.769Z,4.52
2019-02-07T11:23:48.494Z,4.39
2019-02-07T11:28:26.945Z,4.89
2019-02-07T11:31:00.573Z,5.35
2019-02-07T11:34:03.480Z,4.65
2019-02-07T11:36:37.287Z,4.64
2019-02-07T11:40:18.875Z,4.61
2019-02-07T11:44:57.552Z,4.73
2019-02-07T11:48:30.729Z,4.71
2019-02-07T11:51:15.312Z,4.95
2019-02-07T12:11:28.616Z,5.38
2019-02-07T12:14:17.765Z,5.44
2019-02-07T12:17:54.135Z,5.47
2019-02-07T12:39:54.454Z,4.67
2019-02-07T12:42:29.240Z,4.75
2019-02-07T13:02:30.946Z,4.82
2019-02-07T13:40:52.272Z,4.65
2019-02-07T13:43:27.040Z,4.73
2019-02-07T13:46:05.926Z,4.46
2019-02-07T13:48:42.725Z,4.52
2019-02-07T13:52:17.153Z,4.41
2019-02-07T13:55:55.895Z,4.47
2019-02-07T14:00:33.278Z,4.44
2019-02-07T14:03:07.070Z,4.44
2019-02-07T14:05:41.798Z,4.43
2019-02-07T14:08:19.758Z,4.38
2019-02-07T14:10:54.436Z,4.33
2019-02-07T14:30:56.372Z,4.29
2019-02-07T14:33:31.166Z,4.25
2019-02-07T14:53:20.829Z,4.60
2019-02-07T15:13:10.164Z,4.49
2019-02-07T15:15:39.944Z,4.42
2019-02-07T15:18:09.627Z,4.29
2019-02-07T15:20:39.567Z,4.11
2019-02-07T15:23:09.153Z,4.01
2019-02-07T15:25:38.818Z,3.88
2019-02-07T15:28:08.661Z,3.69
2019-02-07T15:30:38.208Z,3.65
2019-02-07T15:33:07.663Z,3.65
2019-02-07T15:35:40.114Z,3.55
2019-02-07T15:38:09.863Z,3.52
2019-02-07T15:40:39.511Z,3.47
2019-02-07T15:43:09.452Z,3.34
2019-02-07T15:45:39.262Z,3.17
2019-02-07T15:48:09.140Z,3.17
2019-02-07T15:50:39.011Z,3.26
2019-02-07T15:53:08.950Z,3.08
2019-02-07T15:55:38.809Z,2.92
2019-02-07T15:58:08.655Z,2.85
2019-02-07T16:00:43.524Z,2.87
2019-02-07T16:03:18.822Z,2.85
2019-02-07T16:05:48.531Z,2.87
2019-02-07T16:08:18.239Z,2.87
2019-02-07T16:10:48.153Z,2.81
2019-02-07T16:13:17.725Z,2.72
2019-02-07T16:15:47.345Z,2.73
2019-02-07T16:18:17.225Z,2.74
2019-02-07T16:20:48.867Z,2.71
2019-02-07T16:23:16.263Z,2.64
2019-02-07T16:25:46.048Z,2.50
2019-02-07T16:28:15.641Z,2.44
2019-02-07T16:30:45.385Z,2.19
2019-02-07T16:33:15.680Z,2.20
2019-02-07T16:35:45.321Z,2.30
2019-02-07T16:38:14.789Z,2.15
2019-02-07T16:40:44.362Z,2.23
2019-02-07T16:43:14.734Z,2.21
2019-02-07T16:45:44.432Z,2.14
2019-02-07T16:48:14.251Z,2.07
2019-02-07T16:50:43.901Z,1.96
2019-02-07T16:53:13.564Z,1.95
2019-02-07T16:55:43.544Z,2.07
2019-02-07T16:58:13.140Z,2.11
2019-02-07T17:00:43.060Z,2.13
2019-02-07T17:03:12.849Z,2.12
2019-02-07T17:05:42.475Z,2.06
2019-02-07T17:08:11.981Z,3.36
2019-02-07T17:10:41.962Z,7.71
2019-02-07T17:13:11.900Z,6.71
2019-02-07T17:15:41.642Z,6.14
2019-02-07T17:18:11.704Z,5.40
2019-02-07T17:20:41.437Z,6.01
2019-02-07T17:23:11.059Z,6.15
2019-02-07T17:25:40.965Z,7.51
2019-02-07T17:28:10.510Z,6.23
2019-02-07T17:30:40.195Z,6.53
2019-02-07T17:33:10.043Z,5.95
2019-02-07T17:35:39.679Z,6.52
2019-02-07T17:38:12.357Z,9.37
2019-02-07T17:40:41.988Z,8.04
2019-02-07T17:43:11.509Z,8.10
2019-02-07T17:45:41.210Z,9.21
2019-02-07T17:48:10.697Z,9.23
2019-02-07T17:50:40.623Z,7.47
2019-02-07T17:53:10.376Z,9.11
2019-02-07T17:55:40.101Z,7.47
2019-02-07T17:58:09.832Z,8.05
2019-02-07T18:00:46.487Z,10.46
2019-02-07T18:03:15.881Z,8.47
2019-02-07T18:05:45.658Z,8.61
2019-02-07T18:08:15.294Z,7.31
2019-02-07T18:10:45.107Z,6.12
2019-02-07T18:13:14.887Z,5.64
2019-02-07T18:15:44.397Z,4.90
2019-02-07T18:18:13.864Z,4.50
2019-02-07T18:20:43.779Z,4.11
2019-02-07T18:23:13.482Z,3.99
2019-02-07T18:25:43.112Z,3.63
2019-02-07T18:28:12.822Z,3.35
2019-02-07T18:30:42.558Z,3.21
2019-02-07T18:33:12.307Z,3.10
2019-02-07T18:35:42.391Z,3.15
2019-02-07T18:38:12.086Z,2.95
2019-02-07T18:40:41.542Z,2.94
2019-02-07T18:43:11.368Z,2.90
2019-02-07T18:45:40.763Z,2.80
2019-02-07T18:48:10.606Z,2.72
2019-02-07T18:50:40.479Z,2.76
2019-02-07T18:53:10.011Z,2.68
2019-02-07T18:55:39.842Z,2.73
2019-02-07T18:58:09.321Z,2.60
2019-02-07T19:00:39.276Z,2.56
2019-02-07T19:03:09.051Z,2.49
2019-02-07T19:05:38.743Z,2.42
2019-02-07T19:08:08.625Z,2.42
2019-02-07T19:10:38.413Z,2.40
2019-02-07T19:13:07.996Z,2.40
2019-02-07T19:15:42.414Z,2.47
2019-02-07T19:18:11.902Z,2.37
2019-02-07T19:20:41.615Z,2.37
2019-02-07T19:23:11.575Z,2.32
2019-02-07T19:25:41.160Z,2.37
2019-02-07T19:28:10.906Z,2.37
2019-02-07T19:30:40.601Z,2.30
2019-02-07T19:33:10.190Z,2.27
2019-02-07T19:35:39.793Z,2.29
2019-02-07T19:38:09.647Z,2.26
2019-02-07T19:40:39.299Z,2.22
2019-02-07T19:43:09.051Z,2.15
2019-02-07T19:45:38.734Z,2.08
2019-02-07T19:48:08.245Z,2.08
2019-02-07T19:50:37.974Z,2.08
2019-02-07T19:53:07.771Z,2.11
2019-02-07T19:55:37.764Z,2.14
2019-02-07T19:58:07.597Z,2.09
2019-02-07T20:00:39.485Z,2.18
2019-02-07T20:03:07.364Z,2.04
2019-02-07T20:05:36.935Z,2.05
2019-02-07T20:08:06.888Z,2.07
2019-02-07T20:10:36.660Z,1.90
2019-02-07T20:13:06.501Z,1.94
2019-02-07T20:15:38.310Z,1.99
2019-02-07T20:18:08.927Z,2.06
2019-02-07T20:20:38.890Z,1.89
2019-02-07T20:23:08.545Z,1.70
2019-02-07T20:25:38.508Z,1.78
2019-02-07T20:28:08.111Z,1.81
2019-02-07T20:30:39.443Z,1.75
2019-02-07T20:33:09.814Z,1.83
2019-02-07T20:35:39.451Z,1.86
2019-02-07T20:38:10.075Z,1.80
2019-02-07T20:40:39.853Z,1.83
2019-02-07T20:43:10.023Z,1.88
2019-02-07T20:45:39.767Z,1.91
2019-02-07T20:48:10.035Z,1.89
2019-02-07T20:50:39.516Z,1.91
2019-02-07T20:53:09.406Z,1.82
2019-02-07T20:55:39.130Z,1.93
2019-02-07T20:58:08.765Z,1.88
2019-02-07T21:00:39.376Z,1.89
2019-02-07T21:03:09.160Z,1.83
2019-02-07T21:05:38.997Z,1.72
2019-02-07T21:08:08.668Z,1.76
2019-02-07T21:10:38.486Z,1.62
2019-02-07T21:13:07.949Z,1.45
2019-02-07T21:15:37.605Z,1.52
2019-02-07T21:18:07.350Z,1.50
2019-02-07T21:20:36.932Z,1.54
2019-02-07T21:23:06.838Z,1.57
2019-02-07T21:25:42.591Z,1.61
2019-02-07T21:28:12.424Z,1.50
2019-02-07T21:30:41.952Z,1.52
2019-02-07T21:33:11.641Z,1.51
2019-02-07T21:35:41.249Z,1.57
2019-02-07T21:38:11.794Z,1.39
2019-02-07T21:40:41.591Z,1.38
2019-02-07T21:43:11.238Z,1.46
2019-02-07T21:45:40.812Z,1.56
2019-02-07T21:48:11.484Z,1.61
2019-02-07T21:50:41.072Z,1.46
2019-02-07T21:53:10.662Z,1.39
2019-02-07T21:55:40.326Z,1.34
2019-02-07T21:58:10.244Z,1.33
2019-02-07T22:00:41.720Z,1.34
2019-02-07T22:03:13.202Z,1.27
2019-02-07T22:05:43.210Z,1.15
2019-02-07T22:08:12.890Z,1.23
2019-02-07T22:10:42.638Z,1.32
2019-02-07T22:13:12.395Z,1.43
2019-02-07T22:15:41.946Z,1.54
2019-02-07T22:18:11.606Z,1.44
2019-02-07T22:20:41.406Z,1.52
2019-02-07T22:23:11.371Z,1.44
2019-02-07T22:25:41.021Z,1.25
2019-02-07T22:28:10.823Z,1.37
2019-02-07T22:30:40.600Z,1.34
2019-02-07T22:33:10.150Z,1.27
2019-02-07T22:35:39.789Z,1.22
2019-02-07T22:38:09.612Z,1.26
2019-02-07T22:40:39.156Z,1.30
2019-02-07T22:43:08.909Z,1.33
2019-02-07T22:45:38.864Z,1.34
2019-02-07T22:48:08.694Z,1.33
2019-02-07T22:50:38.695Z,1.23
2019-02-07T22:53:08.389Z,1.25
2019-02-07T22:55:38.051Z,1.22
2019-02-07T22:58:08.830Z,1.20
2019-02-07T23:00:50.251Z,1.19
2019-02-07T23:03:20.100Z,1.31
2019-02-07T23:05:49.681Z,1.29
2019-02-07T23:08:19.309Z,1.27
2019-02-07T23:10:48.967Z,1.31
2019-02-07T23:13:18.520Z,1.34
2019-02-07T23:15:48.025Z,1.31
2019-02-07T23:18:17.816Z,1.28
2019-02-07T23:20:47.598Z,1.21
2019-02-07T23:23:17.135Z,1.33
2019-02-07T23:25:46.923Z,1.32
2019-02-07T23:28:16.572Z,1.35
2019-02-07T23:30:46.319Z,1.42
2019-02-07T23:33:15.956Z,1.41
2019-02-07T23:35:45.503Z,1.29
2019-02-07T23:38:14.896Z,1.36
2019-02-07T23:40:44.747Z,1.30
2019-02-07T23:43:14.356Z,1.25
2019-02-07T23:45:44.068Z,1.35
2019-02-07T23:48:13.666Z,1.38
2019-02-07T23:50:43.283Z,1.38
2019-02-07T23:53:14.567Z,1.43
2019-02-07T23:55:42.584Z,1.46
2019-02-07T23:58:12.299Z,1.47
